Time;durP1;ratioP1;P1;durP2;ratioP2;P2;SDS_P1;SDS_P2;PMS_P1;PMS_P2;Temp;Humidity;BMP_temperature;BMP_pressure;BME280_temperature;BME280_humidity;BME280_pressure;Samples;Min_cycle;Max_cycle;Signal;HPM_P1;HPM_P2
2022/09/01 00:01:26;;;;;;;8.10;2.50;;;13.40;99.90;;;;;;5055198;28;20504;-87
2022/09/01 00:04:01;;;;;;;6.53;2.30;;;13.30;99.90;;;;;;5054414;28;20052;-88
2022/09/01 00:06:29;;;;;;;7.82;2.65;;;13.30;99.90;;;;;;5072013;28;20496;-87
2022/09/01 00:08:58;;;;;;;7.00;2.38;;;13.20;99.90;;;;;;5055133;28;20105;-88
2022/09/01 00:11:25;;;;;;;9.15;2.40;;;13.30;99.90;;;;;;5072057;28;20049;-88
2022/09/01 00:13:52;;;;;;;6.38;2.40;;;13.50;99.90;;;;;;5055087;28;20048;-88
2022/09/01 00:16:19;;;;;;;9.82;2.47;;;13.30;99.90;;;;;;5054693;28;20040;-88
2022/09/01 00:18:48;;;;;;;8.15;2.53;;;13.30;99.90;;;;;;5054043;28;20044;-88
2022/09/01 00:21:16;;;;;;;8.27;2.50;;;13.20;99.90;;;;;;5054498;28;20062;-88
2022/09/01 00:23:42;;;;;;;9.52;2.67;;;13.20;99.90;;;;;;5054684;28;20521;-88
2022/09/01 00:26:08;;;;;;;7.18;2.58;;;13.20;99.90;;;;;;5054092;28;20490;-87
2022/09/01 00:28:35;;;;;;;10.05;2.95;;;13.20;99.90;;;;;;5051121;28;20045;-88
2022/09/01 00:31:00;;;;;;;8.70;2.70;;;13.30;99.90;;;;;;5052472;28;20493;-88
2022/09/01 00:33:26;;;;;;;7.07;2.72;;;13.10;99.90;;;;;;5051926;28;20043;-87
2022/09/01 00:35:52;;;;;;;8.05;2.65;;;13.10;99.90;;;;;;5052860;28;20045;-87
2022/09/01 00:38:17;;;;;;;9.55;2.70;;;13.00;99.90;;;;;;5050216;28;20049;-87
2022/09/01 00:40:43;;;;;;;8.63;2.90;;;13.30;99.90;;;;;;5051624;28;20480;-87
2022/09/01 00:44:04;;;;;;;7.82;2.75;;;13.00;99.90;;;;;;5050859;28;20140;-87
2022/09/01 00:46:35;;;;;;;8.23;2.60;;;13.00;99.90;;;;;;4973715;28;20513;-88
2022/09/01 00:49:09;;;;;;;7.75;2.65;;;12.90;99.90;;;;;;5042418;28;20524;-87
2022/09/01 00:51:37;;;;;;;9.00;2.92;;;12.90;99.90;;;;;;5050967;28;20049;-87
2022/09/01 00:54:05;;;;;;;7.75;2.47;;;12.90;99.90;;;;;;5050502;28;20032;-87
2022/09/01 00:56:34;;;;;;;6.70;2.50;;;12.80;99.90;;;;;;5052758;28;20088;-88
2022/09/01 00:59:00;;;;;;;9.68;3.38;;;12.80;99.90;;;;;;5052891;28;20037;-87
2022/09/01 01:01:26;;;;;;;8.15;2.70;;;12.80;99.90;;;;;;5050043;28;20051;-87
2022/09/01 01:03:52;;;;;;;7.72;2.78;;;12.70;99.90;;;;;;5052997;28;20037;-87
2022/09/01 01:06:22;;;;;;;9.57;2.88;;;12.70;99.90;;;;;;5054068;28;20567;-87
2022/09/01 01:08:59;;;;;;;8.55;2.65;;;12.70;99.90;;;;;;5052490;28;20049;-88
2022/09/01 01:11:31;;;;;;;8.60;2.70;;;12.70;99.90;;;;;;5051070;28;20095;-87
2022/09/01 01:14:09;;;;;;;8.65;2.80;;;12.60;99.90;;;;;;5050998;28;20467;-87
2022/09/01 01:16:35;;;;;;;8.30;2.83;;;12.60;99.90;;;;;;5055237;28;20041;-87
2022/09/01 01:19:01;;;;;;;8.27;2.88;;;12.60;99.90;;;;;;5054400;28;20091;-87
2022/09/01 01:24:26;;;;;;;7.50;2.70;;;12.60;99.90;;;;;;5054721;28;20052;-88
2022/09/01 01:26:54;;;;;;;9.60;2.95;;;12.50;99.90;;;;;;5056834;28;20049;-88
2022/09/01 01:29:22;;;;;;;8.32;2.80;;;12.50;99.90;;;;;;5068444;28;20099;-87
2022/09/01 01:31:52;;;;;;;7.95;2.80;;;12.50;99.90;;;;;;5080737;28;20041;-87
2022/09/01 01:34:18;;;;;;;8.07;2.70;;;12.40;99.90;;;;;;5073273;28;20052;-88
2022/09/01 01:36:46;;;;;;;8.43;2.80;;;12.40;99.90;;;;;;5076568;28;20503;-88
2022/09/01 01:39:26;;;;;;;8.07;2.70;;;12.40;99.90;;;;;;5060515;28;20055;-88
2022/09/01 01:41:53;;;;;;;8.32;2.90;;;12.40;99.90;;;;;;5070349;28;20122;-87
2022/09/01 01:44:26;;;;;;;6.40;2.67;;;12.40;99.90;;;;;;5076160;28;20041;-87
2022/09/01 01:46:53;;;;;;;9.03;2.90;;;12.30;99.90;;;;;;5076386;28;20044;-87
2022/09/01 01:49:22;;;;;;;7.45;2.85;;;12.40;99.90;;;;;;5056695;28;20040;-87
2022/09/01 01:51:54;;;;;;;8.55;3.05;;;12.30;99.90;;;;;;5074916;28;20106;-88
2022/09/01 01:54:25;;;;;;;10.90;3.10;;;12.30;99.90;;;;;;5075847;28;20206;-88
2022/09/01 01:56:51;;;;;;;7.75;2.97;;;12.20;99.90;;;;;;5057519;28;20551;-87
2022/09/01 01:59:18;;;;;;;9.60;3.20;;;12.20;99.90;;;;;;5057567;28;20079;-88
2022/09/01 02:01:48;;;;;;;8.85;3.00;;;12.20;99.90;;;;;;5074765;28;20427;-88
2022/09/01 02:04:15;;;;;;;8.38;3.00;;;12.20;99.90;;;;;;5056898;28;20049;-88
2022/09/01 02:06:44;;;;;;;7.65;2.95;;;12.20;99.90;;;;;;5075252;28;20446;-88
2022/09/01 02:09:11;;;;;;;7.07;2.75;;;12.20;99.90;;;;;;5075648;28;20049;-88
2022/09/01 02:11:37;;;;;;;7.32;2.80;;;12.10;99.90;;;;;;5074643;28;20048;-88
2022/09/01 02:14:06;;;;;;;8.73;3.42;;;12.10;99.90;;;;;;5056930;28;20085;-87
2022/09/01 02:16:33;;;;;;;7.60;3.10;;;12.10;99.90;;;;;;5075160;28;20045;-88
2022/09/01 02:19:00;;;;;;;8.25;3.20;;;12.00;99.90;;;;;;5074713;28;20045;-88
2022/09/01 02:21:27;;;;;;;9.52;3.20;;;12.10;99.90;;;;;;5056747;28;20044;-88
2022/09/01 02:24:04;;;;;;;8.50;2.78;;;12.00;99.90;;;;;;5074777;28;20123;-88
2022/09/01 02:26:38;;;;;;;7.18;2.92;;;11.90;99.90;;;;;;5056852;28;20182;-88
2022/09/01 02:29:08;;;;;;;7.40;3.00;;;12.00;99.90;;;;;;5056206;28;20399;-88
2022/09/01 02:31:38;;;;;;;7.97;2.90;;;11.90;99.90;;;;;;5074415;28;20083;-87
2022/09/01 02:34:09;;;;;;;7.38;3.00;;;11.90;99.90;;;;;;5075348;28;20044;-88
2022/09/01 02:36:46;;;;;;;7.53;2.92;;;11.90;99.90;;;;;;5057062;28;20048;-88
2022/09/01 02:39:13;;;;;;;6.90;2.80;;;12.20;99.90;;;;;;5073856;28;20044;-88
2022/09/01 02:41:40;;;;;;;7.70;2.97;;;11.90;99.90;;;;;;5074853;28;20049;-88
2022/09/01 02:44:13;;;;;;;9.10;3.13;;;11.90;99.90;;;;;;5057175;28;20032;-88
2022/09/01 02:46:41;;;;;;;8.15;3.10;;;12.00;99.90;;;;;;5056121;28;20072;-87
2022/09/01 02:49:24;;;;;;;7.63;3.30;;;11.90;99.90;;;;;;5056713;28;20594;-88
2022/09/01 02:51:52;;;;;;;8.60;3.33;;;11.90;99.90;;;;;;5074970;28;20055;-87
2022/09/01 02:54:23;;;;;;;7.85;3.55;;;11.90;99.90;;;;;;5073905;28;20044;-87
2022/09/01 02:56:53;;;;;;;8.45;3.33;;;11.80;99.90;;;;;;5074600;28;20037;-88
2022/09/01 02:59:21;;;;;;;8.80;3.33;;;11.80;99.90;;;;;;5059265;28;20044;-86
2022/09/01 03:01:49;;;;;;;8.00;3.35;;;11.80;99.90;;;;;;5074951;28;20066;-88
2022/09/01 03:04:16;;;;;;;7.95;3.25;;;11.80;99.90;;;;;;5056255;28;20078;-88
2022/09/01 03:06:42;;;;;;;8.10;3.10;;;11.80;99.90;;;;;;5068620;28;20028;-87
2022/09/01 03:09:10;;;;;;;8.98;3.20;;;11.80;99.90;;;;;;5082137;28;20063;-87
2022/09/01 03:11:38;;;;;;;9.07;2.97;;;11.80;99.90;;;;;;5077960;28;20040;-87
2022/09/01 03:14:05;;;;;;;7.07;2.80;;;11.80;99.90;;;;;;5064701;28;20135;-87
2022/09/01 03:16:31;;;;;;;8.45;3.35;;;11.80;99.90;;;;;;5062115;28;20068;-88
2022/09/01 03:18:58;;;;;;;6.80;2.85;;;11.80;99.90;;;;;;5061170;28;20500;-88
2022/09/01 03:21:24;;;;;;;7.18;2.80;;;11.70;99.90;;;;;;5073923;28;20078;-88
2022/09/01 03:23:51;;;;;;;9.07;3.00;;;11.70;99.90;;;;;;5056101;28;20040;-88
2022/09/01 03:26:19;;;;;;;7.80;3.20;;;11.70;99.90;;;;;;5055838;28;20045;-87
2022/09/01 03:28:46;;;;;;;8.13;3.30;;;11.70;99.90;;;;;;5054986;28;20064;-88
2022/09/01 03:31:12;;;;;;;8.00;3.28;;;11.70;99.90;;;;;;5055473;28;20070;-88
2022/09/01 03:33:37;;;;;;;7.35;3.25;;;11.70;99.90;;;;;;5073746;28;20044;-88
2022/09/01 03:36:05;;;;;;;8.50;3.15;;;11.70;99.90;;;;;;5055336;28;20063;-88
2022/09/01 03:38:30;;;;;;;9.00;3.10;;;11.70;99.90;;;;;;5073637;28;20036;-88
2022/09/01 03:41:03;;;;;;;8.52;3.50;;;11.80;99.90;;;;;;5073730;28;20052;-88
2022/09/01 03:43:30;;;;;;;7.93;3.38;;;11.80;99.90;;;;;;5054388;28;20036;-87
2022/09/01 03:46:00;;;;;;;7.80;2.88;;;11.80;99.90;;;;;;5055608;28;20125;-88
2022/09/01 03:48:28;;;;;;;8.05;3.28;;;11.80;99.90;;;;;;5072526;28;20044;-88
2022/09/01 03:50:59;;;;;;;7.43;3.53;;;11.90;99.90;;;;;;5055823;28;20052;-88
2022/09/01 03:53:26;;;;;;;8.82;3.58;;;11.90;99.90;;;;;;5073318;28;20044;-88
2022/09/01 03:55:53;;;;;;;8.70;3.47;;;11.90;99.90;;;;;;5072661;28;20432;-88
2022/09/01 03:58:19;;;;;;;8.27;3.42;;;11.90;99.90;;;;;;5055520;28;20072;-88
2022/09/01 04:00:59;;;;;;;8.48;3.33;;;11.90;99.90;;;;;;5070438;28;20523;-88
2022/09/01 04:03:27;;;;;;;7.82;3.40;;;12.00;99.90;;;;;;5049433;28;20049;-88
2022/09/01 04:05:54;;;;;;;7.72;3.30;;;12.00;99.90;;;;;;5034357;28;20047;-87
2022/09/01 04:08:27;;;;;;;9.27;3.42;;;11.90;99.90;;;;;;5034718;28;20076;-87
2022/09/01 04:10:54;;;;;;;8.57;3.63;;;11.90;99.90;;;;;;5034859;28;20049;-87
2022/09/01 04:13:29;;;;;;;9.68;3.42;;;11.90;99.90;;;;;;5053167;28;20132;-87
2022/09/01 04:15:56;;;;;;;7.55;3.20;;;12.00;99.90;;;;;;5035986;28;20053;-88
2022/09/01 04:18:22;;;;;;;9.13;3.30;;;11.90;99.90;;;;;;5034352;28;20037;-88
2022/09/01 04:20:55;;;;;;;10.70;3.25;;;11.90;99.90;;;;;;5035222;28;20094;-88
2022/09/01 04:23:28;;;;;;;8.32;3.45;;;12.00;99.90;;;;;;5034389;28;20045;-87
2022/09/01 04:25:58;;;;;;;7.30;3.00;;;11.90;99.90;;;;;;5035670;28;20048;-88
2022/09/01 04:28:33;;;;;;;8.87;3.20;;;11.90;99.90;;;;;;5052700;28;20099;-87
2022/09/01 04:31:04;;;;;;;8.45;3.40;;;11.90;99.90;;;;;;5034554;28;20049;-88
2022/09/01 04:33:41;;;;;;;7.28;3.17;;;11.90;99.90;;;;;;5034918;28;20045;-88
2022/09/01 04:36:22;;;;;;;8.82;3.47;;;11.90;99.90;;;;;;5035834;28;20573;-88
2022/09/01 04:38:53;;;;;;;8.80;3.50;;;11.90;99.90;;;;;;5052780;28;20067;-88
2022/09/01 04:41:20;;;;;;;9.48;3.30;;;11.80;99.90;;;;;;5053468;28;20064;-88
2022/09/01 04:43:48;;;;;;;12.40;3.72;;;11.80;99.90;;;;;;5037532;28;20069;-88
2022/09/01 04:46:14;;;;;;;8.10;3.28;;;11.80;99.90;;;;;;5063642;28;20057;-87
2022/09/01 04:48:44;;;;;;;9.10;3.45;;;11.80;99.90;;;;;;5038785;28;20132;-88
2022/09/01 04:51:11;;;;;;;7.75;3.25;;;11.70;99.90;;;;;;5036966;28;20053;-87
2022/09/01 04:53:38;;;;;;;9.80;3.72;;;11.70;99.90;;;;;;5077117;28;20033;-88
2022/09/01 04:56:06;;;;;;;8.82;3.65;;;11.70;99.90;;;;;;5045940;28;20068;-88
2022/09/01 04:58:32;;;;;;;7.63;3.00;;;11.60;99.90;;;;;;5058211;28;20116;-87
2022/09/01 05:00:59;;;;;;;9.05;3.17;;;11.60;99.90;;;;;;5043906;28;20104;-88
2022/09/01 05:03:25;;;;;;;11.10;3.50;;;11.50;99.90;;;;;;5041942;28;20045;-87
2022/09/01 05:05:52;;;;;;;9.43;3.33;;;11.50;99.90;;;;;;5057152;28;20120;-88
2022/09/01 05:08:22;;;;;;;8.52;3.30;;;11.50;99.90;;;;;;5038587;28;20049;-88
2022/09/01 05:10:51;;;;;;;7.97;3.22;;;11.50;99.90;;;;;;5056429;28;20408;-88
2022/09/01 05:13:18;;;;;;;7.85;3.20;;;11.50;99.90;;;;;;5037801;28;20041;-88
2022/09/01 05:15:46;;;;;;;8.20;3.03;;;11.50;99.90;;;;;;5038551;28;20060;-88
2022/09/01 05:18:22;;;;;;;10.70;3.42;;;11.50;99.90;;;;;;5056912;28;20041;-88
2022/09/01 05:20:49;;;;;;;11.63;3.22;;;11.50;99.90;;;;;;5038379;28;20049;-87
2022/09/01 05:23:18;;;;;;;9.00;3.40;;;11.50;99.90;;;;;;5059873;28;20044;-88
2022/09/01 05:25:47;;;;;;;8.23;3.70;;;11.50;99.90;;;;;;5056725;28;20037;-88
2022/09/01 05:28:14;;;;;;;8.27;3.35;;;11.50;99.90;;;;;;5055843;28;20839;-88
2022/09/01 05:30:40;;;;;;;9.38;3.60;;;11.50;99.90;;;;;;5056555;28;20056;-87
2022/09/01 05:33:15;;;;;;;8.65;3.17;;;11.60;99.90;;;;;;5038397;28;20068;-87
2022/09/01 05:35:55;;;;;;;9.90;3.33;;;11.60;99.90;;;;;;5037694;28;20412;-87
2022/09/01 05:38:23;;;;;;;8.38;3.17;;;11.60;99.90;;;;;;5037850;28;20041;-87
2022/09/01 05:40:56;;;;;;;8.90;3.33;;;11.70;99.90;;;;;;5055546;28;20049;-88
2022/09/01 05:43:26;;;;;;;7.28;2.95;;;11.70;99.90;;;;;;5055191;28;20041;-87
2022/09/01 05:45:53;;;;;;;7.20;3.00;;;11.80;99.90;;;;;;5056137;28;20116;-87
2022/09/01 05:48:20;;;;;;;8.00;3.15;;;12.30;99.90;;;;;;5036966;28;20045;-88
2022/09/01 05:50:48;;;;;;;8.13;3.15;;;11.80;99.90;;;;;;5038110;28;20392;-87
2022/09/01 05:53:16;;;;;;;8.18;3.10;;;11.90;99.90;;;;;;5037677;28;20041;-88
2022/09/01 05:55:46;;;;;;;9.82;3.70;;;11.90;99.90;;;;;;5055012;28;20053;-92
2022/09/01 05:58:15;;;;;;;9.23;3.30;;;12.00;99.90;;;;;;5038017;28;20045;-88
2022/09/01 06:00:48;;;;;;;8.48;3.60;;;12.10;99.90;;;;;;5055666;28;20099;-87
2022/09/01 06:03:15;;;;;;;9.90;3.22;;;12.10;99.90;;;;;;5054035;28;20558;-86
2022/09/01 06:05:51;;;;;;;8.98;3.17;;;12.10;99.90;;;;;;5036404;28;20053;-86
2022/09/01 06:08:27;;;;;;;8.55;3.25;;;12.50;99.90;;;;;;5037396;28;20412;-87
2022/09/01 06:10:53;;;;;;;8.07;3.40;;;12.50;99.90;;;;;;5054730;28;20124;-88
2022/09/01 06:13:31;;;;;;;8.68;3.30;;;12.50;99.90;;;;;;5055275;28;20045;-87
2022/09/01 06:16:10;;;;;;;9.63;3.38;;;12.30;99.90;;;;;;5036328;28;20051;-87
2022/09/01 06:18:37;;;;;;;8.48;3.28;;;12.40;99.90;;;;;;5038579;28;20045;-88
2022/09/01 06:21:27;;;;;;;8.70;3.10;;;12.50;99.90;;;;;;5041858;28;20116;-91
2022/09/01 06:23:54;;;;;;;8.13;3.35;;;12.50;99.90;;;;;;5046282;28;20053;-88
2022/09/01 06:26:31;;;;;;;8.30;3.33;;;13.40;99.90;;;;;;5016539;28;20496;-87
2022/09/01 06:29:22;;;;;;;8.80;3.20;;;13.10;99.90;;;;;;5044083;28;20041;-89
2022/09/01 06:31:50;;;;;;;10.48;3.50;;;12.80;99.90;;;;;;5028069;28;20064;-87
2022/09/01 06:34:16;;;;;;;9.32;3.45;;;12.80;99.90;;;;;;5016233;28;20046;-87
2022/09/01 06:36:44;;;;;;;7.82;3.25;;;12.90;99.90;;;;;;5016400;28;20171;-90
2022/09/01 06:39:18;;;;;;;7.95;3.30;;;13.00;99.90;;;;;;5016255;28;20053;-88
2022/09/01 06:41:48;;;;;;;;;;;13.10;99.90;;;;;;5121424;22;20080;-88
2022/09/01 06:44:14;;;;;;;9.10;3.35;;;13.20;99.90;;;;;;5058687;28;19958;-88
2022/09/01 06:46:58;;;;;;;10.95;3.53;;;13.30;99.90;;;;;;5070044;28;20081;-89
2022/09/01 06:49:31;;;;;;;10.25;3.17;;;13.60;99.90;;;;;;5064562;28;20482;-88
2022/09/01 06:52:12;;;;;;;8.10;3.08;;;13.20;99.90;;;;;;5058137;28;20032;-88
2022/09/01 06:54:42;;;;;;;10.27;3.13;;;14.80;99.90;;;;;;5074765;28;20392;-88
2022/09/01 06:57:28;;;;;;;7.30;2.90;;;14.80;99.90;;;;;;5074748;28;20052;-88
2022/09/01 06:59:54;;;;;;;9.15;3.13;;;13.90;99.90;;;;;;5055715;28;20059;-88
2022/09/01 07:02:32;;;;;;;8.10;2.97;;;14.00;99.90;;;;;;5055963;28;20051;-89
2022/09/01 07:04:58;;;;;;;8.45;3.05;;;14.10;99.90;;;;;;5056538;28;20053;-89
2022/09/01 07:07:41;;;;;;;10.10;3.10;;;15.00;99.90;;;;;;5055251;28;20057;-88
2022/09/01 07:10:24;;;;;;;7.60;2.92;;;14.40;99.90;;;;;;5056065;28;20102;-89
2022/09/01 07:13:00;;;;;;;7.05;2.75;;;15.40;99.90;;;;;;5073556;28;20040;-88
2022/09/01 07:15:26;;;;;;;7.27;3.10;;;14.70;99.90;;;;;;5055413;28;20071;-89
2022/09/01 07:17:55;;;;;;;6.97;2.70;;;14.80;99.90;;;;;;5056001;28;20294;-89
2022/09/01 07:20:24;;;;;;;8.18;3.17;;;14.90;99.90;;;;;;5055339;28;20040;-89
2022/09/01 07:22:51;;;;;;;8.60;2.60;;;15.10;99.90;;;;;;5064974;28;20067;-90
2022/09/01 07:25:19;;;;;;;7.28;2.60;;;15.80;99.90;;;;;;5035706;28;20516;-88
2022/09/01 07:27:49;;;;;;;6.70;2.40;;;15.30;99.90;;;;;;5035710;28;20068;-90
2022/09/01 07:30:21;;;;;;;7.13;2.63;;;15.50;99.90;;;;;;5035471;28;20472;-89
2022/09/01 07:32:47;;;;;;;8.05;2.70;;;15.50;99.90;;;;;;5054161;28;20073;-89
2022/09/01 07:35:18;;;;;;;7.57;2.50;;;15.70;99.90;;;;;;5053215;28;20468;-90
2022/09/01 07:37:45;;;;;;;7.05;2.53;;;15.70;99.90;;;;;;5036363;28;20075;-89
2022/09/01 07:40:17;;;;;;;7.60;2.60;;;16.60;99.90;;;;;;5036468;28;20045;-90
2022/09/01 07:42:46;;;;;;;7.18;2.60;;;16.00;99.90;;;;;;5069304;28;20053;-89
2022/09/01 07:45:14;;;;;;;7.85;2.70;;;16.10;99.90;;;;;;5064367;28;20070;-90
2022/09/01 07:47:39;;;;;;;7.00;2.28;;;16.20;99.90;;;;;;5078015;28;20037;-91
2022/09/01 07:50:07;;;;;;;6.57;2.10;;;16.30;99.90;;;;;;5075585;28;20044;-92
2022/09/01 07:52:41;;;;;;;9.32;2.30;;;16.40;99.90;;;;;;5057264;28;20041;-90
2022/09/01 07:55:14;;;;;;;6.40;2.20;;;16.60;99.90;;;;;;5074494;28;20041;-90
2022/09/01 07:57:41;;;;;;;8.07;2.60;;;16.70;99.90;;;;;;5071920;28;20052;-87
2022/09/01 08:00:10;;;;;;;7.30;2.47;;;16.90;99.90;;;;;;5076546;28;20170;-88
2022/09/01 08:02:38;;;;;;;9.07;2.40;;;17.00;99.90;;;;;;5073255;28;20056;-87
2022/09/01 08:05:09;;;;;;;7.65;2.33;;;17.30;99.90;;;;;;5085535;28;20048;-88
2022/09/01 08:07:36;;;;;;;7.05;2.33;;;17.20;99.90;;;;;;5058031;28;20048;-90
2022/09/01 08:10:04;;;;;;;8.07;2.40;;;17.30;99.90;;;;;;5055155;28;20040;-87
2022/09/01 08:12:30;;;;;;;7.65;2.10;;;17.40;99.90;;;;;;5073063;28;20052;-86
2022/09/01 08:14:56;;;;;;;7.63;2.05;;;17.60;99.90;;;;;;5055139;28;20045;-87
2022/09/01 08:17:22;;;;;;;6.47;2.10;;;18.40;99.90;;;;;;5053958;28;20044;-87
2022/09/01 08:19:48;;;;;;;5.38;1.90;;;17.80;99.90;;;;;;5055172;28;20139;-86
2022/09/01 08:22:15;;;;;;;6.60;2.00;;;17.90;99.90;;;;;;5054815;28;20048;-88
2022/09/01 08:24:41;;;;;;;4.70;1.90;;;18.00;99.90;;;;;;5072689;28;20400;-88
2022/09/01 08:27:07;;;;;;;5.35;1.80;;;18.10;99.90;;;;;;5054180;28;20040;-84
2022/09/01 08:29:33;;;;;;;7.35;2.10;;;18.20;99.90;;;;;;5053475;28;20059;-87
2022/09/01 08:31:59;;;;;;;8.35;1.80;;;18.30;99.90;;;;;;5054930;28;20047;-88
2022/09/01 08:34:25;;;;;;;8.15;1.90;;;18.70;99.90;;;;;;5058349;28;20037;-88
2022/09/01 08:36:54;;;;;;;6.55;1.90;;;18.50;99.90;;;;;;5073802;28;20071;-89
2022/09/01 08:39:19;;;;;;;7.60;1.80;;;19.00;99.90;;;;;;5054569;28;20500;-87
2022/09/01 08:41:56;;;;;;;5.43;1.73;;;18.80;99.90;;;;;;5072594;28;20103;-87
2022/09/01 08:44:45;;;;;;;6.90;1.77;;;18.80;99.90;;;;;;5075780;28;20091;-87
2022/09/01 08:47:15;;;;;;;6.13;1.90;;;19.00;99.90;;;;;;5054804;28;20063;-87
2022/09/01 08:49:44;;;;;;;5.80;1.77;;;19.10;99.90;;;;;;5072724;28;20053;-88
2022/09/01 08:52:26;;;;;;;5.68;1.80;;;19.10;99.90;;;;;;5053979;28;20055;-87
2022/09/01 08:55:01;;;;;;;6.10;1.77;;;19.30;99.90;;;;;;5054916;28;20125;-86
2022/09/01 08:57:33;;;;;;;5.78;1.67;;;19.40;99.90;;;;;;5072458;28;20048;-87
2022/09/01 08:59:59;;;;;;;5.93;1.75;;;19.50;99.90;;;;;;5051790;28;20041;-86
2022/09/01 09:02:52;;;;;;;6.47;1.90;;;19.60;99.90;;;;;;5061726;28;20048;-87
2022/09/01 09:06:00;;;;;;;6.80;1.95;;;19.70;99.90;;;;;;5057705;28;20059;-86
2022/09/01 09:08:53;;;;;;;4.80;1.70;;;19.80;99.90;;;;;;5026024;28;20183;-85
2022/09/01 09:11:51;;;;;;;4.82;1.65;;;19.90;99.90;;;;;;5055737;28;20045;-86
2022/09/01 09:14:37;;;;;;;3.85;1.60;;;20.00;99.90;;;;;;5048894;28;20041;-87
2022/09/01 09:17:03;;;;;;;4.88;1.60;;;20.00;99.90;;;;;;5053534;28;20040;-87
2022/09/01 09:19:40;;;;;;;5.22;1.70;;;20.20;99.90;;;;;;5053051;28;20052;-87
2022/09/01 09:22:10;;;;;;;4.50;1.60;;;20.30;99.90;;;;;;5054629;28;20098;-86
2022/09/01 09:24:51;;;;;;;4.40;1.60;;;20.40;99.90;;;;;;5054310;28;20381;-86
2022/09/01 09:27:17;;;;;;;3.55;1.40;;;20.60;99.90;;;;;;5053639;28;20106;-84
2022/09/01 09:29:49;;;;;;;4.20;1.42;;;20.80;99.90;;;;;;5054154;28;20127;-84
2022/09/01 09:32:15;;;;;;;5.47;1.70;;;20.80;99.90;;;;;;5062114;28;20070;-86
2022/09/01 09:34:42;;;;;;;4.68;1.55;;;21.00;99.90;;;;;;5080764;28;20234;-88
2022/09/01 09:37:28;;;;;;;5.57;1.58;;;21.30;99.90;;;;;;5073145;28;20040;-88
2022/09/01 09:40:11;;;;;;;6.13;1.50;;;21.20;99.90;;;;;;5062972;28;20051;-86
2022/09/01 09:42:38;;;;;;;3.33;1.40;;;21.70;99.90;;;;;;5063183;28;20052;-86
2022/09/01 09:45:20;;;;;;;4.22;1.58;;;21.40;99.90;;;;;;5075667;28;20128;-88
2022/09/01 09:47:46;;;;;;;7.10;1.60;;;21.30;99.90;;;;;;5074025;28;20055;-87
2022/09/01 09:50:26;;;;;;;4.80;1.40;;;21.40;99.90;;;;;;5057853;28;20515;-89
2022/09/01 09:53:08;;;;;;;4.97;1.58;;;21.50;99.90;;;;;;5061443;28;20040;-87
2022/09/01 09:55:34;;;;;;;6.63;1.60;;;21.70;99.90;;;;;;5075712;28;20518;-92
2022/09/01 09:58:08;;;;;;;6.78;1.60;;;22.10;99.90;;;;;;5063812;28;20276;-90
2022/09/01 10:00:34;;;;;;;4.40;1.55;;;21.70;99.30;;;;;;5056957;28;20495;-90
2022/09/01 10:03:12;;;;;;;3.40;1.50;;;22.40;99.90;;;;;;5055189;28;20081;-87
2022/09/01 10:05:43;;;;;;;8.00;1.80;;;22.00;98.90;;;;;;5063940;28;20135;-91
2022/09/01 10:10:54;;;;;;;4.38;1.50;;;22.90;98.00;;;;;;5103770;22;20576;-92
2022/09/01 10:13:34;;;;;;;4.60;1.33;;;22.50;99.10;;;;;;5035304;28;20069;-92
2022/09/01 10:16:25;;;;;;;4.30;1.40;;;22.50;96.30;;;;;;5017066;28;20053;-92
2022/09/01 10:19:11;;;;;;;4.05;1.30;;;23.20;96.70;;;;;;5035974;28;20037;-94
2022/09/01 10:21:55;;;;;;;4.07;1.40;;;23.60;96.40;;;;;;5017425;28;20049;-92
2022/09/01 10:24:43;;;;;;;4.40;1.40;;;23.60;96.20;;;;;;5022083;28;20049;-93
2022/09/01 10:27:20;;;;;;;3.60;1.45;;;23.10;95.40;;;;;;5048661;28;20025;-92
2022/09/01 10:30:06;;;;;;;3.72;1.48;;;23.00;95.80;;;;;;5035677;28;20042;-96
2022/09/01 10:32:57;;;;;;;4.43;1.40;;;23.40;96.10;;;;;;5036361;28;20497;-91
2022/09/01 10:35:35;;;;;;;4.57;1.55;;;23.50;94.90;;;;;;5041061;28;20551;-92
2022/09/01 10:38:26;;;;;;;4.93;1.55;;;24.20;95.80;;;;;;5021102;28;20038;-91
2022/09/01 10:41:06;;;;;;;3.55;1.40;;;23.80;93.80;;;;;;5035836;28;20124;-90
2022/09/01 10:43:46;;;;;;;6.85;1.40;;;23.80;95.10;;;;;;5034650;28;20045;-91
2022/09/01 10:46:20;;;;;;;5.80;1.45;;;24.10;95.00;;;;;;5035350;28;20581;-89
2022/09/01 10:48:49;;;;;;;4.55;1.48;;;24.20;94.20;;;;;;5017711;28;20045;-88
2022/09/01 10:51:14;;;;;;;3.95;1.40;;;24.30;94.40;;;;;;5015929;28;20041;-86
2022/09/01 10:53:43;;;;;;;3.60;1.40;;;24.60;94.20;;;;;;5042771;28;20064;-88
2022/09/01 10:56:12;;;;;;;4.03;1.30;;;25.10;94.00;;;;;;5039070;28;20041;-89
2022/09/01 10:58:49;;;;;;;6.35;1.40;;;25.10;93.40;;;;;;5026239;28;20087;-91
2022/09/01 11:01:15;;;;;;;4.78;1.50;;;25.30;92.20;;;;;;5018406;28;20037;-93
2022/09/01 11:03:55;;;;;;;5.78;1.65;;;25.60;92.80;;;;;;5022439;28;20052;-89
2022/09/01 11:06:57;;;;;;;4.05;1.50;;;25.50;90.50;;;;;;5028459;28;20044;-92
2022/09/01 11:09:44;;;;;;;4.28;1.50;;;25.60;91.10;;;;;;5052416;28;20396;-94
2022/09/01 11:12:41;;;;;;;3.22;1.52;;;25.70;91.00;;;;;;5064178;28;20546;-92
2022/09/01 11:15:12;;;;;;;3.78;1.30;;;25.70;90.80;;;;;;5055498;28;20043;-94
2022/09/01 11:17:59;;;;;;;6.30;1.60;;;25.50;91.30;;;;;;5072382;28;20049;-87
2022/09/01 11:20:34;;;;;;;6.10;1.45;;;25.10;90.90;;;;;;5052909;28;20045;-88
2022/09/01 11:23:23;;;;;;;3.60;1.58;;;24.30;91.60;;;;;;5050941;28;20052;-88
2022/09/01 11:25:57;;;;;;;3.03;1.40;;;23.90;91.30;;;;;;5051987;28;20033;-88
2022/09/01 11:28:23;;;;;;;4.15;1.50;;;24.10;91.70;;;;;;5054029;28;20560;-88
2022/09/01 11:30:57;;;;;;;6.25;1.58;;;24.80;91.50;;;;;;5055821;28;20172;-90
2022/09/01 11:33:25;;;;;;;6.28;1.70;;;24.80;91.50;;;;;;5053119;28;20041;-89
2022/09/01 11:36:18;;;;;;;4.45;1.50;;;24.90;90.90;;;;;;5062524;28;20041;-89
2022/09/01 11:38:51;;;;;;;4.40;1.40;;;25.60;90.30;;;;;;5034988;28;20393;-89
2022/09/01 11:41:32;;;;;;;3.83;1.40;;;25.50;90.10;;;;;;5054182;28;20041;-88
2022/09/01 11:44:00;;;;;;;3.63;1.48;;;25.90;89.80;;;;;;5052708;28;20033;-88
2022/09/01 11:46:33;;;;;;;5.72;1.55;;;26.20;90.60;;;;;;5054735;28;20508;-87
2022/09/01 11:49:05;;;;;;;4.68;1.50;;;26.50;89.40;;;;;;5049946;28;20118;-87
2022/09/01 11:51:43;;;;;;;3.20;1.40;;;26.50;87.20;;;;;;5055336;28;20041;-88
2022/09/01 11:54:09;;;;;;;3.08;1.30;;;26.60;86.50;;;;;;5052276;28;20136;-89
2022/09/01 11:56:35;;;;;;;5.03;1.60;;;26.70;86.90;;;;;;5061399;28;20036;-88
2022/09/01 11:59:01;;;;;;;3.72;1.40;;;26.90;86.30;;;;;;5053350;28;20392;-90
2022/09/01 12:01:33;;;;;;;2.40;1.30;;;27.00;85.10;;;;;;5054079;28;20049;-95
2022/09/01 12:04:21;;;;;;;4.40;1.60;;;27.10;83.60;;;;;;5053107;28;20037;-96
2022/09/01 12:07:08;;;;;;;3.25;1.38;;;26.80;82.10;;;;;;5053519;28;20044;-96
2022/09/01 12:12:50;;;;;;;4.32;1.50;;;26.90;83.70;;;;;;5054437;28;20045;-96
2022/09/01 12:15:23;;;;;;;6.43;1.52;;;26.20;82.40;;;;;;5053305;28;20071;-95
2022/09/01 12:17:49;;;;;;;4.40;1.40;;;25.70;83.50;;;;;;5072693;28;20074;-95
2022/09/01 12:20:22;;;;;;;6.20;1.60;;;25.30;84.20;;;;;;5077776;28;20048;-94
2022/09/01 12:22:51;;;;;;;4.38;1.55;;;24.60;83.50;;;;;;5077914;28;20021;-94
2022/09/01 12:25:50;;;;;;;5.85;1.50;;;25.40;84.70;;;;;;5059022;28;20048;-94
2022/09/01 12:28:30;;;;;;;7.07;1.55;;;25.00;83.70;;;;;;5019892;28;20045;-93
2022/09/01 12:31:01;;;;;;;3.50;1.45;;;25.10;83.80;;;;;;5078464;28;20013;-94
2022/09/01 12:33:43;;;;;;;4.28;1.30;;;25.60;83.50;;;;;;5053151;28;20089;-95
2022/09/01 12:36:33;;;;;;;3.42;1.40;;;26.60;82.60;;;;;;5053831;28;20097;-95
2022/09/01 12:39:21;;;;;;;4.10;1.50;;;26.40;81.70;;;;;;5053427;28;20053;-94
2022/09/01 12:42:18;;;;;;;3.30;1.40;;;26.40;81.80;;;;;;5054124;28;20041;-93
2022/09/01 12:44:50;;;;;;;6.65;1.50;;;25.40;81.90;;;;;;5059784;28;20045;-95
2022/09/01 12:47:52;;;;;;;2.42;1.20;;;25.00;82.60;;;;;;5053514;28;20048;-96
2022/09/01 12:50:17;;;;;;;2.72;1.30;;;25.40;82.00;;;;;;5055123;28;20052;-95
2022/09/01 12:53:13;;;;;;;4.40;1.60;;;25.80;83.30;;;;;;5060427;28;20049;-95
2022/09/01 12:56:01;;;;;;;3.50;1.40;;;24.90;81.80;;;;;;5054341;28;20045;-94
2022/09/01 12:58:29;;;;;;;4.97;1.50;;;24.60;83.00;;;;;;5056948;28;20106;-94
2022/09/01 13:01:16;;;;;;;3.85;1.45;;;24.70;83.60;;;;;;5053114;28;20049;-94
2022/09/01 13:04:11;;;;;;;5.95;1.50;;;24.00;83.60;;;;;;5053935;28;20049;-95
2022/09/01 13:06:37;;;;;;;4.05;1.40;;;24.00;84.00;;;;;;5054051;28;20045;-96
2022/09/01 13:09:28;;;;;;;4.30;1.42;;;24.80;84.50;;;;;;5053511;28;20045;-95
2022/09/01 13:12:42;;;;;;;4.05;1.52;;;25.00;82.80;;;;;;5052005;28;20531;-95
2022/09/01 13:15:09;;;;;;;3.70;1.40;;;25.50;82.40;;;;;;4976678;28;20079;-95
2022/09/01 13:17:43;;;;;;;5.95;1.52;;;26.10;82.50;;;;;;4976557;28;20122;-94
2022/09/01 13:20:18;;;;;;;3.97;1.40;;;26.60;82.40;;;;;;4960313;28;20753;-93
2022/09/01 13:22:51;;;;;;;4.50;1.50;;;26.90;79.10;;;;;;4992099;28;20041;-94